Time;durP1;ratioP1;P1;durP2;ratioP2;P2;SDS_P1;SDS_P2;PMS_P1;PMS_P2;Temp;Humidity;BMP_temperature;BMP_pressure;BME280_temperature;BME280_humidity;BME280_pressure;Samples;Min_cycle;Max_cycle;Signal;HPM_P1;HPM_P2
2021/07/02 00:02:32;;;;;;;19.15;8.40;;;14.20;99.90;;;;;;5107038;27;20473;-69
2021/07/02 00:05:13;;;;;;;12.07;7.55;;;14.20;99.90;;;;;;5074350;28;20102;-69
2021/07/02 00:07:53;;;;;;;14.38;7.85;;;14.30;99.90;;;;;;5119480;27;20104;-69
2021/07/02 00:10:33;;;;;;;14.20;7.85;;;14.20;99.90;;;;;;5061340;28;20506;-70
2021/07/02 00:13:13;;;;;;;11.20;6.63;;;14.30;99.90;;;;;;5079612;27;20113;-68
2021/07/02 00:15:53;;;;;;;16.13;8.77;;;14.30;99.90;;;;;;5088535;28;20102;-68
2021/07/02 00:18:32;;;;;;;14.68;7.80;;;14.30;99.90;;;;;;5067468;28;20797;-69
2021/07/02 00:21:12;;;;;;;14.60;8.82;;;14.30;99.90;;;;;;5066334;28;20387;-69
2021/07/02 00:23:52;;;;;;;13.70;7.90;;;14.30;99.90;;;;;;5083246;28;20107;-69
2021/07/02 00:26:32;;;;;;;13.23;7.40;;;14.40;99.90;;;;;;5063527;28;20510;-69
2021/07/02 00:29:12;;;;;;;17.73;8.55;;;14.40;99.90;;;;;;5055969;28;20383;-69
2021/07/02 00:31:52;;;;;;;12.63;7.22;;;14.30;99.90;;;;;;5048868;28;20427;-69
2021/07/02 00:34:32;;;;;;;17.48;7.55;;;14.30;99.90;;;;;;5085389;28;20128;-70
2021/07/02 00:37:11;;;;;;;15.40;7.55;;;14.40;99.90;;;;;;5064253;28;20464;-69
2021/07/02 00:39:51;;;;;;;11.43;7.97;;;14.40;99.90;;;;;;5114430;27;20118;-69
2021/07/02 00:42:31;;;;;;;15.73;8.32;;;14.30;99.90;;;;;;5063949;28;20406;-69
2021/07/02 00:45:11;;;;;;;14.60;7.78;;;14.30;99.90;;;;;;5088042;27;20389;-69
2021/07/02 00:47:51;;;;;;;14.90;9.07;;;14.30;99.90;;;;;;5076948;28;20125;-69
2021/07/02 00:50:31;;;;;;;13.95;8.18;;;14.30;99.90;;;;;;5124117;27;20112;-69
2021/07/02 00:53:12;;;;;;;17.95;9.27;;;14.30;99.90;;;;;;5063782;28;20456;-69
2021/07/02 00:55:52;;;;;;;16.55;8.60;;;14.30;99.90;;;;;;5076634;28;20107;-69
2021/07/02 00:58:35;;;;;;;18.85;8.93;;;14.30;99.90;;;;;;5063699;28;20498;-69
2021/07/02 01:01:16;;;;;;;16.50;8.70;;;14.30;99.90;;;;;;5119369;27;20107;-68
2021/07/02 01:03:58;;;;;;;14.88;9.02;;;14.40;99.90;;;;;;5068072;28;20383;-69
2021/07/02 01:06:42;;;;;;;17.38;8.85;;;14.30;99.90;;;;;;5060734;28;20122;-68
2021/07/02 01:09:25;;;;;;;13.50;7.95;;;14.30;99.90;;;;;;5107093;27;20959;-68
2021/07/02 01:12:08;;;;;;;14.85;8.45;;;14.30;99.90;;;;;;5067319;28;20409;-69
2021/07/02 01:14:49;;;;;;;21.15;8.63;;;14.40;99.90;;;;;;5114519;27;20092;-69
2021/07/02 01:17:31;;;;;;;15.35;8.52;;;14.40;99.90;;;;;;5067651;28;20379;-69
2021/07/02 01:20:12;;;;;;;15.45;9.23;;;14.40;99.90;;;;;;5088130;28;20132;-69
2021/07/02 01:22:51;;;;;;;12.27;7.95;;;14.40;99.90;;;;;;5121884;27;20378;-69
2021/07/02 01:25:35;;;;;;;19.58;8.95;;;14.40;99.90;;;;;;5062165;28;20561;-69
2021/07/02 01:28:19;;;;;;;17.17;8.55;;;14.30;99.90;;;;;;5098751;27;20676;-67
2021/07/02 01:30:59;;;;;;;14.15;7.88;;;14.30;99.90;;;;;;5105928;27;20117;-69
2021/07/02 01:33:39;;;;;;;15.57;8.50;;;14.30;99.90;;;;;;5066436;28;20122;-69
2021/07/02 01:36:24;;;;;;;15.32;8.38;;;14.30;99.90;;;;;;5087114;28;20594;-69
2021/07/02 01:39:06;;;;;;;17.90;8.52;;;14.30;99.90;;;;;;5102312;27;20312;-69
2021/07/02 01:41:48;;;;;;;13.52;7.93;;;14.30;99.90;;;;;;5115798;27;20142;-69
2021/07/02 01:44:28;;;;;;;15.93;8.40;;;14.30;99.90;;;;;;5040819;28;20530;-69
2021/07/02 01:47:07;;;;;;;15.35;8.20;;;14.40;99.90;;;;;;5087764;28;20105;-69
2021/07/02 01:49:50;;;;;;;15.18;7.78;;;14.30;99.90;;;;;;5066922;28;20493;-68
2021/07/02 01:52:31;;;;;;;12.52;8.02;;;14.30;99.90;;;;;;5086260;27;20397;-69
2021/07/02 01:55:10;;;;;;;14.20;8.10;;;14.30;99.90;;;;;;5083980;28;20108;-67
2021/07/02 01:57:51;;;;;;;14.05;8.20;;;14.30;99.90;;;;;;5085598;28;20112;-69
2021/07/02 02:00:37;;;;;;;12.10;7.18;;;14.30;99.90;;;;;;5059693;28;20380;-69
2021/07/02 02:03:25;;;;;;;14.55;8.68;;;14.30;99.90;;;;;;5127545;27;20317;-67
2021/07/02 02:06:06;;;;;;;15.65;8.27;;;14.30;99.90;;;;;;5088365;28;20114;-68
2021/07/02 02:08:47;;;;;;;14.40;8.05;;;14.30;99.90;;;;;;5106880;27;20105;-68
2021/07/02 02:11:28;;;;;;;13.35;7.75;;;14.30;99.90;;;;;;5088875;27;20667;-69
2021/07/02 02:14:11;;;;;;;18.75;8.15;;;14.30;99.90;;;;;;5107352;27;20441;-68
2021/07/02 02:16:56;;;;;;;13.98;8.48;;;14.30;99.90;;;;;;5067036;28;20522;-69
2021/07/02 02:19:36;;;;;;;12.75;8.07;;;14.30;99.90;;;;;;5067097;28;20379;-69
2021/07/02 02:22:17;;;;;;;13.75;8.50;;;14.20;99.90;;;;;;5047674;28;20901;-69
2021/07/02 02:24:59;;;;;;;14.55;8.60;;;14.20;99.90;;;;;;5115054;27;20463;-69
2021/07/02 02:27:42;;;;;;;14.40;7.50;;;14.10;99.90;;;;;;5059235;28;20395;-68
2021/07/02 02:30:24;;;;;;;14.68;8.63;;;14.10;99.90;;;;;;5099983;27;20488;-69
2021/07/02 02:33:05;;;;;;;17.90;8.60;;;14.20;99.90;;;;;;5063622;28;20795;-69
2021/07/02 02:35:45;;;;;;;16.73;7.95;;;14.20;99.90;;;;;;5118485;27;20387;-69
2021/07/02 02:38:25;;;;;;;14.23;7.88;;;14.20;99.90;;;;;;5059467;28;20782;-69
2021/07/02 02:41:05;;;;;;;15.18;7.97;;;14.20;99.90;;;;;;5068157;28;20436;-69
2021/07/02 02:43:45;;;;;;;15.38;8.23;;;14.20;99.90;;;;;;5067559;28;20448;-69
2021/07/02 02:46:24;;;;;;;18.42;9.13;;;14.20;99.90;;;;;;5107306;27;20886;-68
2021/07/02 02:49:04;;;;;;;13.73;8.30;;;14.10;99.90;;;;;;5067034;28;20448;-68
2021/07/02 02:51:45;;;;;;;15.18;8.18;;;14.10;99.90;;;;;;5079650;28;20114;-69
2021/07/02 02:54:24;;;;;;;13.73;8.30;;;14.10;99.90;;;;;;5068342;28;20391;-69
2021/07/02 02:57:07;;;;;;;16.75;8.25;;;14.10;99.90;;;;;;5057146;28;20888;-68
2021/07/02 02:59:57;;;;;;;14.43;8.27;;;14.10;99.90;;;;;;5087891;28;20105;-69
2021/07/02 03:02:37;;;;;;;14.05;8.05;;;14.10;99.90;;;;;;5067365;28;20456;-69
2021/07/02 03:05:37;;;;;;;13.82;7.57;;;14.10;99.90;;;;;;5038125;28;20126;-69
2021/07/02 03:08:18;;;;;;;16.15;8.52;;;14.10;99.90;;;;;;5066367;28;20383;-68
2021/07/02 03:11:05;;;;;;;13.95;8.35;;;14.00;99.90;;;;;;5108563;27;20125;-68
2021/07/02 03:13:44;;;;;;;13.43;7.97;;;14.00;99.90;;;;;;5084032;28;20421;-70
2021/07/02 03:16:26;;;;;;;16.77;8.52;;;14.00;99.90;;;;;;5074727;28;20126;-69
2021/07/02 03:19:06;;;;;;;15.63;8.63;;;14.00;99.90;;;;;;5110675;27;20486;-69
2021/07/02 03:21:47;;;;;;;13.27;7.57;;;14.00;99.90;;;;;;5047881;28;20142;-69
2021/07/02 03:24:27;;;;;;;15.05;8.40;;;14.00;99.90;;;;;;5075749;28;20124;-69
2021/07/02 03:27:07;;;;;;;14.65;8.50;;;14.00;99.90;;;;;;5035687;28;20490;-68
2021/07/02 03:29:51;;;;;;;14.05;8.10;;;14.00;99.90;;;;;;5087841;28;20511;-69
2021/07/02 03:32:31;;;;;;;14.57;8.48;;;14.10;99.90;;;;;;5042660;27;20433;-68
2021/07/02 03:35:11;;;;;;;14.63;8.02;;;14.00;99.90;;;;;;5074362;28;20537;-69
2021/07/02 03:37:52;;;;;;;18.48;8.65;;;14.10;99.90;;;;;;5109377;27;20581;-69
2021/07/02 03:40:32;;;;;;;14.93;8.68;;;14.00;99.90;;;;;;5081478;28;20116;-69
2021/07/02 03:43:29;;;;;;;17.02;8.93;;;14.00;99.90;;;;;;5087289;28;20327;-69
2021/07/02 03:46:10;;;;;;;16.95;8.65;;;14.00;99.90;;;;;;5067516;28;20793;-69
2021/07/02 03:48:51;;;;;;;14.38;8.65;;;14.00;99.90;;;;;;5084498;28;20114;-69
2021/07/02 03:51:31;;;;;;;16.15;8.30;;;13.90;99.90;;;;;;5065546;28;21026;-70
2021/07/02 03:54:12;;;;;;;18.52;9.13;;;14.00;99.90;;;;;;5087658;28;20157;-68
2021/07/02 03:57:11;;;;;;;16.40;9.15;;;13.90;99.90;;;;;;5107379;27;20107;-69
2021/07/02 03:59:51;;;;;;;14.98;9.15;;;13.90;99.90;;;;;;5085248;28;20106;-69
2021/07/02 04:02:31;;;;;;;19.65;10.57;;;13.90;99.90;;;;;;5066851;28;20383;-69
2021/07/02 04:05:11;;;;;;;21.15;10.05;;;13.90;99.90;;;;;;5066799;28;20106;-67
2021/07/02 04:07:52;;;;;;;15.52;9.55;;;13.90;99.90;;;;;;5115446;27;20100;-69
2021/07/02 04:10:32;;;;;;;15.95;8.35;;;13.90;99.90;;;;;;5108499;27;20532;-69
2021/07/02 04:13:12;;;;;;;20.23;10.18;;;13.90;99.90;;;;;;5086906;28;20592;-69
2021/07/02 04:15:53;;;;;;;15.13;9.77;;;13.80;99.90;;;;;;5111358;27;20119;-69
2021/07/02 04:18:33;;;;;;;20.10;10.57;;;13.80;99.90;;;;;;5111834;27;20612;-68
2021/07/02 04:21:13;;;;;;;18.70;10.48;;;13.80;99.90;;;;;;5110965;27;20109;-68
2021/07/02 04:23:53;;;;;;;17.83;10.85;;;13.80;99.90;;;;;;5059561;28;20393;-69
2021/07/02 04:26:33;;;;;;;20.85;10.88;;;13.80;99.90;;;;;;5067186;28;20386;-68
2021/07/02 04:29:13;;;;;;;17.40;10.57;;;13.80;99.90;;;;;;5052957;28;20898;-69
2021/07/02 04:31:53;;;;;;;19.67;10.63;;;13.80;99.90;;;;;;5086760;28;20121;-69
2021/07/02 04:34:34;;;;;;;15.75;9.73;;;13.80;99.90;;;;;;5086677;28;20101;-69
2021/07/02 04:37:13;;;;;;;21.25;10.00;;;14.00;99.90;;;;;;5123267;27;20103;-69
2021/07/02 04:39:53;;;;;;;18.70;10.20;;;14.00;99.90;;;;;;5088412;27;20397;-69
2021/07/02 04:42:33;;;;;;;22.10;10.70;;;14.00;99.90;;;;;;5074124;27;20407;-69
2021/07/02 04:45:13;;;;;;;19.00;10.77;;;14.00;99.90;;;;;;5058031;28;20528;-69
2021/07/02 04:47:41;;;;;;;20.20;11.32;;;13.90;99.90;;;;;;5028356;28;20318;-69
2021/07/02 04:50:21;;;;;;;21.95;12.27;;;13.90;99.90;;;;;;5098909;27;20397;-70
2021/07/02 04:53:01;;;;;;;20.17;10.68;;;13.90;99.90;;;;;;5053196;28;20388;-69
2021/07/02 04:55:41;;;;;;;17.35;10.55;;;14.00;99.90;;;;;;5078829;27;20528;-68
2021/07/02 04:58:21;;;;;;;21.17;11.77;;;14.00;99.90;;;;;;5067463;28;20524;-68
2021/07/02 05:01:00;;;;;;;19.52;10.68;;;14.00;99.90;;;;;;5067625;28;20383;-69
2021/07/02 05:03:40;;;;;;;19.90;10.35;;;14.00;99.90;;;;;;5064204;28;20425;-69
2021/07/02 05:06:20;;;;;;;18.75;10.77;;;14.00;99.90;;;;;;5067668;28;20383;-69
2021/07/02 05:09:04;;;;;;;20.38;11.02;;;14.00;99.90;;;;;;5088341;27;20382;-69
2021/07/02 05:11:43;;;;;;;18.20;10.38;;;14.00;99.90;;;;;;5067771;28;20394;-70
2021/07/02 05:14:23;;;;;;;23.60;10.75;;;14.00;99.90;;;;;;5065373;28;20405;-69
2021/07/02 05:17:04;;;;;;;20.65;10.73;;;14.00;99.90;;;;;;5087505;27;20895;-70
2021/07/02 05:19:44;;;;;;;22.00;11.48;;;14.00;99.90;;;;;;5129422;27;20833;-70
2021/07/02 05:22:24;;;;;;;20.02;11.77;;;14.00;99.90;;;;;;5064195;28;20382;-69
2021/07/02 05:25:06;;;;;;;22.20;11.27;;;14.10;99.90;;;;;;5067914;28;20909;-70
2021/07/02 05:27:46;;;;;;;19.65;11.25;;;14.10;99.90;;;;;;5128913;27;20865;-69
2021/07/02 05:30:27;;;;;;;19.75;10.45;;;14.10;99.90;;;;;;5064493;28;20712;-69
2021/07/02 05:33:06;;;;;;;17.60;10.82;;;14.10;99.90;;;;;;5065456;28;20864;-69
2021/07/02 05:35:46;;;;;;;21.30;11.52;;;14.20;99.90;;;;;;5060060;28;20452;-69
2021/07/02 05:38:26;;;;;;;18.23;10.60;;;14.20;99.90;;;;;;5056828;28;20438;-69
2021/07/02 05:41:05;;;;;;;22.33;12.88;;;14.30;99.90;;;;;;5056680;28;20507;-70
2021/07/02 05:43:46;;;;;;;18.00;10.60;;;14.30;99.90;;;;;;5084578;28;20122;-69
2021/07/02 05:46:26;;;;;;;19.67;9.95;;;14.40;99.90;;;;;;5103256;27;20441;-68
2021/07/02 05:49:06;;;;;;;17.70;11.00;;;14.50;99.90;;;;;;5117341;27;20499;-69
2021/07/02 05:51:45;;;;;;;22.60;12.13;;;14.60;99.90;;;;;;5078379;28;20114;-68
2021/07/02 05:54:25;;;;;;;21.13;11.90;;;14.60;99.90;;;;;;5068860;28;20106;-69
2021/07/02 05:57:04;;;;;;;21.60;11.82;;;14.70;99.90;;;;;;5063819;28;21052;-69
2021/07/02 05:59:44;;;;;;;21.15;12.27;;;14.80;99.90;;;;;;5112090;27;20116;-68
2021/07/02 06:02:24;;;;;;;20.60;11.68;;;14.80;99.90;;;;;;5095182;27;20449;-69
2021/07/02 06:05:05;;;;;;;20.35;11.80;;;14.80;99.90;;;;;;5081621;27;20399;-69
2021/07/02 06:07:51;;;;;;;20.60;10.38;;;15.00;99.90;;;;;;5060391;28;20427;-69
2021/07/02 06:10:30;;;;;;;17.80;10.75;;;15.10;99.90;;;;;;5050262;28;20403;-69
2021/07/02 06:13:12;;;;;;;22.90;11.50;;;15.30;99.90;;;;;;5085930;27;20386;-69
2021/07/02 06:15:56;;;;;;;18.67;10.77;;;15.50;99.90;;;;;;5098397;27;20435;-69
2021/07/02 06:18:38;;;;;;;19.05;11.10;;;15.60;99.90;;;;;;5102487;27;20784;-69
2021/07/02 06:21:21;;;;;;;25.63;11.40;;;15.70;99.90;;;;;;5087342;28;20478;-70
2021/07/02 06:24:02;;;;;;;19.40;11.13;;;15.80;99.90;;;;;;5128196;27;20483;-68
2021/07/02 06:26:41;;;;;;;19.98;11.90;;;15.90;99.90;;;;;;5065325;28;20548;-69
2021/07/02 06:29:21;;;;;;;14.52;9.73;;;15.90;99.90;;;;;;5068151;28;20441;-70
2021/07/02 06:32:01;;;;;;;17.08;10.30;;;15.90;99.90;;;;;;5067980;28;20897;-69
2021/07/02 06:34:41;;;;;;;18.88;10.82;;;16.20;99.90;;;;;;5078588;27;20504;-69
2021/07/02 06:37:21;;;;;;;19.35;10.50;;;16.20;99.90;;;;;;5128929;27;20400;-70
2021/07/02 06:40:01;;;;;;;16.73;10.70;;;16.20;99.90;;;;;;5067536;28;20383;-69
2021/07/02 06:42:41;;;;;;;19.67;11.13;;;16.10;99.90;;;;;;5062407;28;20445;-69
2021/07/02 06:45:22;;;;;;;20.20;11.70;;;16.20;99.90;;;;;;5083232;27;20377;-69
2021/07/02 06:48:04;;;;;;;18.25;10.85;;;16.20;99.90;;;;;;5063063;28;20390;-68
2021/07/02 06:50:45;;;;;;;17.73;10.57;;;16.20;99.90;;;;;;5102434;27;20394;-70
2021/07/02 06:53:25;;;;;;;19.90;11.77;;;16.10;99.90;;;;;;5062051;28;20881;-68
2021/07/02 06:56:04;;;;;;;19.38;11.85;;;16.20;99.90;;;;;;5067866;28;20375;-68
2021/07/02 06:58:46;;;;;;;20.85;12.45;;;16.10;99.90;;;;;;5067741;28;20379;-69
2021/07/02 07:01:26;;;;;;;18.33;11.77;;;15.90;99.90;;;;;;5079985;27;20812;-69
2021/07/02 07:04:07;;;;;;;20.25;12.52;;;15.80;99.90;;;;;;5068356;28;20437;-69
2021/07/02 07:06:47;;;;;;;22.75;12.93;;;15.80;99.90;;;;;;5110314;27;20113;-70
2021/07/02 07:09:27;;;;;;;18.10;11.80;;;15.70;99.90;;;;;;5048308;28;20295;-69
2021/07/02 07:12:06;;;;;;;21.35;12.65;;;15.80;99.90;;;;;;5107871;27;20119;-69
2021/07/02 07:14:47;;;;;;;20.70;12.18;;;15.90;99.90;;;;;;5068314;28;21010;-69
2021/07/02 07:17:29;;;;;;;24.58;13.50;;;15.80;99.90;;;;;;5079369;28;20129;-69
2021/07/02 07:20:10;;;;;;;19.17;12.57;;;15.90;99.90;;;;;;5047674;28;20570;-69
2021/07/02 07:22:49;;;;;;;21.33;12.13;;;15.90;99.90;;;;;;5106337;27;20449;-68
2021/07/02 07:25:29;;;;;;;21.45;13.15;;;16.10;99.90;;;;;;5067087;28;20481;-67
2021/07/02 07:28:09;;;;;;;25.23;12.15;;;16.10;99.90;;;;;;5067478;28;20746;-69
2021/07/02 07:30:50;;;;;;;17.55;11.55;;;16.10;99.90;;;;;;5054577;28;20392;-69
2021/07/02 07:33:31;;;;;;;23.35;13.10;;;16.10;99.90;;;;;;5111323;27;20460;-69
2021/07/02 07:36:15;;;;;;;20.88;12.73;;;16.20;99.90;;;;;;5071592;28;20138;-70
2021/07/02 07:38:53;;;;;;;21.30;12.35;;;16.40;99.90;;;;;;5077706;27;20403;-69
2021/07/02 07:41:34;;;;;;;17.77;10.63;;;16.50;99.90;;;;;;5108094;27;20848;-70
2021/07/02 07:44:13;;;;;;;19.52;11.82;;;16.60;99.90;;;;;;5124481;27;20395;-70
2021/07/02 07:46:55;;;;;;;18.40;11.60;;;16.60;99.90;;;;;;5054531;28;20448;-69
2021/07/02 07:49:35;;;;;;;21.35;13.00;;;16.70;99.90;;;;;;5086476;27;20113;-70
2021/07/02 07:52:36;;;;;;;24.08;15.07;;;16.90;99.90;;;;;;5065330;28;20378;-69
2021/07/02 07:55:16;;;;;;;25.35;13.27;;;16.80;99.90;;;;;;5044076;28;20421;-67
2021/07/02 07:57:57;;;;;;;19.98;11.48;;;16.80;99.90;;;;;;5086712;28;20105;-70
2021/07/02 08:00:36;;;;;;;17.85;10.65;;;16.90;99.90;;;;;;5102927;27;20917;-69
2021/07/02 08:03:16;;;;;;;25.02;12.50;;;16.90;99.90;;;;;;5048567;28;20826;-69
2021/07/02 08:05:55;;;;;;;16.98;11.50;;;16.90;99.90;;;;;;5117406;27;20922;-70
2021/07/02 08:08:35;;;;;;;20.33;12.60;;;16.90;99.90;;;;;;5085812;27;20393;-70
2021/07/02 08:11:15;;;;;;;18.73;11.88;;;16.80;99.90;;;;;;5049738;28;20373;-69
2021/07/02 08:13:55;;;;;;;20.52;12.57;;;16.80;99.90;;;;;;5106377;27;20121;-69
2021/07/02 08:16:35;;;;;;;20.35;12.35;;;16.80;99.90;;;;;;5067883;28;20440;-71
2021/07/02 08:19:14;;;;;;;20.15;12.65;;;16.80;99.90;;;;;;5066774;28;20379;-69
2021/07/02 08:21:59;;;;;;;19.65;11.43;;;16.80;99.90;;;;;;5084936;28;20552;-69
2021/07/02 08:24:38;;;;;;;19.80;11.88;;;16.70;99.90;;;;;;5076690;28;20125;-69
2021/07/02 08:27:18;;;;;;;17.40;12.07;;;16.70;99.90;;;;;;5086284;27;20400;-69
2021/07/02 08:29:57;;;;;;;18.98;11.93;;;16.70;99.90;;;;;;5040972;28;20393;-69
2021/07/02 08:32:37;;;;;;;16.30;10.82;;;16.60;99.90;;;;;;5094912;27;20384;-69
2021/07/02 08:35:21;;;;;;;24.67;12.18;;;16.70;99.90;;;;;;5127262;27;20448;-69
2021/07/02 08:37:59;;;;;;;16.77;10.00;;;16.90;99.90;;;;;;5066813;28;20885;-70
2021/07/02 08:40:38;;;;;;;20.90;11.40;;;17.10;99.90;;;;;;5108769;27;20388;-69
2021/07/02 08:43:17;;;;;;;18.20;11.20;;;17.20;99.90;;;;;;5055330;28;20385;-69
2021/07/02 08:45:58;;;;;;;18.83;11.38;;;17.30;99.90;;;;;;5085363;27;20424;-69
2021/07/02 08:48:39;;;;;;;19.27;10.98;;;17.20;99.90;;;;;;5046859;28;20454;-69
2021/07/02 08:51:19;;;;;;;19.13;11.27;;;17.30;99.90;;;;;;5063329;28;20913;-68
2021/07/02 08:53:59;;;;;;;15.73;10.75;;;17.20;99.90;;;;;;5067657;28;20375;-69
2021/07/02 08:56:56;;;;;;;21.63;13.15;;;17.20;99.90;;;;;;5106901;27;20384;-69
2021/07/02 08:59:36;;;;;;;18.08;11.02;;;17.20;99.90;;;;;;5108970;27;20311;-69
2021/07/02 09:02:36;;;;;;;19.00;11.90;;;17.20;99.90;;;;;;5139849;27;20769;-68
2021/07/02 09:05:35;;;;;;;19.13;12.10;;;17.20;99.90;;;;;;5106794;27;20512;-69
2021/07/02 09:08:16;;;;;;;20.02;13.15;;;17.00;99.90;;;;;;5087631;27;20427;-68
2021/07/02 09:10:56;;;;;;;20.63;12.95;;;17.10;99.90;;;;;;5129677;27;20386;-69
2021/07/02 09:13:43;;;;;;;20.05;12.93;;;17.40;99.90;;;;;;5053262;28;20476;-69
2021/07/02 09:16:28;;;;;;;19.75;12.68;;;17.60;99.90;;;;;;5067338;28;20440;-69
2021/07/02 09:19:21;;;;;;;20.55;12.23;;;17.70;99.90;;;;;;5067314;28;20440;-69
2021/07/02 09:22:17;;;;;;;24.17;13.25;;;17.90;99.90;;;;;;5085225;27;20435;-69
2021/07/02 09:24:55;;;;;;;18.15;11.73;;;17.80;99.90;;;;;;5068319;28;20433;-69
2021/07/02 09:27:37;;;;;;;17.73;12.23;;;18.00;99.90;;;;;;5066572;28;20414;-69
2021/07/02 09:30:21;;;;;;;17.95;11.38;;;18.10;99.90;;;;;;5068601;28;20718;-69
2021/07/02 09:33:13;;;;;;;17.02;10.63;;;18.30;99.90;;;;;;5063247;28;20396;-70
2021/07/02 09:36:00;;;;;;;14.93;9.65;;;18.60;99.90;;;;;;5067302;28;20441;-69
2021/07/02 09:38:41;;;;;;;18.92;11.98;;;18.90;99.90;;;;;;5106650;27;20439;-70
2021/07/02 09:41:34;;;;;;;14.60;9.43;;;19.10;99.90;;;;;;5088130;28;20110;-69
2021/07/02 09:44:14;;;;;;;17.73;11.07;;;19.50;99.90;;;;;;5053298;28;20401;-69
2021/07/02 09:46:54;;;;;;;17.17;11.43;;;19.80;99.90;;;;;;5064948;28;20122;-70
2021/07/02 09:49:26;;;;;;;17.08;11.18;;;19.90;99.90;;;;;;5062960;28;20131;-70
2021/07/02 09:52:07;;;;;;;16.40;10.52;;;20.10;99.90;;;;;;5066701;28;20143;-70
2021/07/02 09:54:35;;;;;;;17.10;11.35;;;20.70;99.90;;;;;;5068142;28;20044;-70
2021/07/02 09:57:19;;;;;;;18.63;11.38;;;20.70;99.90;;;;;;5064519;28;20442;-70
2021/07/02 10:00:11;;;;;;;16.55;9.80;;;20.70;99.90;;;;;;5066442;28;20049;-70
2021/07/02 10:02:58;;;;;;;17.05;10.52;;;21.00;99.90;;;;;;5061057;28;20083;-69
2021/07/02 10:05:26;;;;;;;17.35;11.38;;;21.30;99.90;;;;;;5067139;28;20483;-69
2021/07/02 10:07:57;;;;;;;19.25;11.45;;;21.20;99.90;;;;;;5067485;28;20124;-70
2021/07/02 10:10:25;;;;;;;18.50;11.47;;;20.50;99.90;;;;;;5066120;28;20055;-70
2021/07/02 10:12:57;;;;;;;16.42;10.82;;;20.20;99.90;;;;;;5066088;28;20491;-69
2021/07/02 10:15:27;;;;;;;20.55;11.73;;;20.30;99.90;;;;;;5064157;28;20529;-70
2021/07/02 10:17:57;;;;;;;15.23;10.55;;;20.30;99.90;;;;;;5045307;28;20059;-70
2021/07/02 10:20:32;;;;;;;14.88;9.70;;;20.50;99.90;;;;;;5061757;28;20098;-69
2021/07/02 10:23:01;;;;;;;17.40;10.95;;;20.80;99.90;;;;;;5064831;28;20048;-69
2021/07/02 10:25:30;;;;;;;22.10;11.38;;;20.60;99.90;;;;;;5061455;28;20041;-69
2021/07/02 10:27:58;;;;;;;18.70;11.25;;;20.60;99.90;;;;;;5056080;28;20045;-69
2021/07/02 10:30:26;;;;;;;17.80;10.70;;;20.80;99.90;;;;;;5046772;28;20079;-69
2021/07/02 10:32:57;;;;;;;16.40;10.00;;;21.00;99.90;;;;;;5063946;28;20055;-68
2021/07/02 10:35:28;;;;;;;20.42;11.45;;;21.10;99.90;;;;;;5048049;28;20080;-69
2021/07/02 10:37:58;;;;;;;14.63;10.10;;;20.90;99.90;;;;;;5065532;28;20040;-69
2021/07/02 10:40:43;;;;;;;17.27;10.60;;;20.80;99.90;;;;;;5064482;28;20489;-69
2021/07/02 10:43:12;;;;;;;14.68;9.55;;;20.80;99.90;;;;;;5066216;28;20405;-69
2021/07/02 10:46:09;;;;;;;12.55;9.13;;;20.70;99.90;;;;;;5065838;28;20063;-69
2021/07/02 10:48:59;;;;;;;15.85;10.68;;;20.40;99.90;;;;;;5065645;28;20044;-69
2021/07/02 10:54:09;;;;;;;18.83;10.27;;;19.40;99.90;;;;;;5064270;28;20040;-69
2021/07/02 10:56:43;;;;;;;16.98;11.30;;;19.00;99.90;;;;;;5059769;28;20128;-68
2021/07/02 10:59:12;;;;;;;17.92;12.20;;;18.80;99.90;;;;;;5047945;28;20127;-69
2021/07/02 11:02:10;;;;;;;19.05;11.45;;;18.70;99.90;;;;;;5047305;28;20045;-69
2021/07/02 11:04:43;;;;;;;13.85;9.38;;;18.70;99.90;;;;;;5018551;28;20045;-69
2021/07/02 11:07:19;;;;;;;16.90;8.88;;;18.90;99.90;;;;;;5039313;28;20075;-70
2021/07/02 11:09:50;;;;;;;14.32;9.82;;;19.60;99.90;;;;;;5050453;28;20100;-69
2021/07/02 11:12:17;;;;;;;17.90;9.40;;;20.40;99.90;;;;;;5050615;28;20044;-69
2021/07/02 11:17:22;;;;;;;14.82;8.80;;;21.30;99.90;;;;;;5051366;28;20052;-69
2021/07/02 11:20:07;;;;;;;12.85;8.55;;;21.60;99.90;;;;;;5060352;28;20064;-68
2021/07/02 11:22:35;;;;;;;16.52;9.57;;;21.80;99.90;;;;;;5047997;28;20040;-69
2021/07/02 11:25:21;;;;;;;16.40;10.52;;;21.70;99.90;;;;;;5053093;28;20052;-68
2021/07/02 11:28:02;;;;;;;13.20;9.63;;;21.40;99.90;;;;;;5045363;28;20099;-69
2021/07/02 11:30:42;;;;;;;14.13;9.05;;;20.70;99.90;;;;;;5045686;28;20057;-69
2021/07/02 11:33:12;;;;;;;15.57;9.48;;;20.20;99.90;;;;;;5048639;28;20188;-69
2021/07/02 11:35:50;;;;;;;13.52;9.43;;;20.00;99.90;;;;;;5049301;28;20103;-69
2021/07/02 11:38:22;;;;;;;14.63;8.48;;;19.70;99.90;;;;;;5051322;28;20056;-68
2021/07/02 11:41:07;;;;;;;17.88;10.13;;;19.30;99.90;;;;;;5049865;28;20047;-69
2021/07/02 11:43:36;;;;;;;13.27;8.93;;;18.90;99.90;;;;;;5045531;28;20091;-69
2021/07/02 11:46:06;;;;;;;13.38;8.60;;;18.70;99.90;;;;;;5031594;28;20059;-69
2021/07/02 11:48:36;;;;;;;15.43;9.20;;;18.60;99.90;;;;;;5033923;28;20423;-69
2021/07/02 11:51:09;;;;;;;17.23;9.68;;;18.50;99.90;;;;;;5054587;28;20127;-68
2021/07/02 11:53:49;;;;;;;13.48;8.50;;;18.30;99.90;;;;;;5034721;28;20068;-69
2021/07/02 11:56:22;;;;;;;12.60;8.85;;;18.30;99.90;;;;;;5046953;28;20425;-68
2021/07/02 11:59:08;;;;;;;16.25;9.50;;;18.20;99.90;;;;;;5064572;28;20052;-69
2021/07/02 12:01:42;;;;;;;15.20;9.43;;;18.20;99.90;;;;;;5051298;28;20044;-69
2021/07/02 12:04:31;;;;;;;15.50;9.40;;;18.30;99.90;;;;;;5052425;28;20120;-69
2021/07/02 12:07:07;;;;;;;13.57;8.30;;;18.40;99.90;;;;;;5049602;28;20575;-69
2021/07/02 12:09:40;;;;;;;17.08;9.43;;;18.60;99.90;;;;;;5050240;28;20041;-69
2021/07/02 12:12:08;;;;;;;15.32;9.18;;;18.70;99.90;;;;;;5048736;28;20049;-69
2021/07/02 12:14:37;;;;;;;15.75;8.40;;;18.70;99.90;;;;;;5031328;28;20084;-69
2021/07/02 12:17:05;;;;;;;16.15;9.25;;;18.80;99.90;;;;;;5049636;28;20036;-69
2021/07/02 12:19:39;;;;;;;11.23;7.70;;;18.80;99.90;;;;;;5040553;28;20037;-69
2021/07/02 12:22:11;;;;;;;11.70;8.13;;;18.80;99.90;;;;;;5049475;28;20052;-69
2021/07/02 12:24:41;;;;;;;14.95;9.40;;;18.70;99.90;;;;;;5041099;28;20423;-69
2021/07/02 12:27:12;;;;;;;13.60;8.52;;;18.60;99.90;;;;;;5030412;28;20040;-68
2021/07/02 12:29:44;;;;;;;14.27;8.83;;;18.50;99.90;;;;;;5039539;28;20049;-69
2021/07/02 12:32:16;;;;;;;16.02;9.55;;;18.50;99.90;;;;;;5051113;28;20292;-69
2021/07/02 12:34:46;;;;;;;15.80;9.45;;;18.50;99.90;;;;;;5019080;28;20041;-69
2021/07/02 12:37:20;;;;;;;13.32;8.75;;;18.50;99.90;;;;;;5030993;28;20091;-69
2021/07/02 12:39:55;;;;;;;11.77;8.25;;;18.70;99.90;;;;;;5061920;28;20419;-69
2021/07/02 12:42:37;;;;;;;13.27;8.85;;;19.00;99.90;;;;;;5049130;28;20041;-69
2021/07/02 12:45:13;;;;;;;15.20;9.55;;;19.30;99.90;;;;;;5037288;28;20047;-69
2021/07/02 12:47:43;;;;;;;13.43;8.38;;;19.60;99.90;;;;;;5046567;28;20072;-69
2021/07/02 12:50:14;;;;;;;14.38;9.13;;;20.00;99.90;;;;;;5049840;28;20048;-70
2021/07/02 12:55:43;;;;;;;13.10;7.88;;;20.40;99.90;;;;;;5040636;28;20439;-70
2021/07/02 12:58:10;;;;;;;12.50;7.50;;;20.80;99.90;;;;;;5048880;28;20140;-70
2021/07/02 13:00:37;;;;;;;17.45;8.20;;;21.40;99.90;;;;;;5038369;28;20048;-69
2021/07/02 13:03:05;;;;;;;11.02;7.10;;;21.80;99.90;;;;;;5049661;28;20060;-70
2021/07/02 13:05:38;;;;;;;11.32;7.55;;;22.20;99.90;;;;;;5049474;28;20080;-70
2021/07/02 13:08:10;;;;;;;12.00;7.72;;;22.50;99.90;;;;;;5049271;28;20503;-70
2021/07/02 13:10:48;;;;;;;12.13;8.18;;;22.50;99.90;;;;;;5047749;28;20079;-70
2021/07/02 13:13:24;;;;;;;11.80;6.50;;;22.60;99.90;;;;;;5048056;28;20051;-70
2021/07/02 13:15:51;;;;;;;13.65;7.05;;;22.90;99.90;;;;;;5049041;28;20072;-70
2021/07/02 13:18:27;;;;;;;9.93;7.43;;;22.90;99.90;;;;;;5032286;28;20037;-70
2021/07/02 13:20:57;;;;;;;11.55;7.10;;;22.80;99.90;;;;;;5030699;28;20080;-68
2021/07/02 13:23:28;;;;;;;13.48;7.05;;;22.30;99.90;;;;;;5047020;28;20094;-69
2021/07/02 13:26:03;;;;;;;14.48;7.15;;;22.10;99.90;;;;;;5050743;28;20051;-68
2021/07/02 13:28:36;;;;;;;11.45;7.45;;;22.30;99.90;;;;;;5044779;28;20111;-68
2021/07/02 13:31:31;;;;;;;12.75;6.80;;;22.50;99.90;;;;;;5044894;28;20480;-69
2021/07/02 13:34:10;;;;;;;9.95;6.20;;;22.90;99.90;;;;;;5024904;28;20407;-69
2021/07/02 13:36:41;;;;;;;11.20;6.13;;;23.20;99.90;;;;;;5036118;28;20175;-70
2021/07/02 13:39:14;;;;;;;9.82;7.15;;;23.60;99.90;;;;;;5050542;28;20044;-69
2021/07/02 13:41:43;;;;;;;9.75;5.85;;;23.60;99.90;;;;;;5044837;28;20111;-69
2021/07/02 13:44:14;;;;;;;11.07;6.32;;;23.80;99.90;;;;;;5048031;28;20064;-69